sensor_id;sensor_type;location;lat;lon;timestamp;temperature;humidity
48686;DHT22;34485;51.536;3.816;2024-01-15T00:01:58;3.80;99.90
48686;DHT22;34485;51.536;3.816;2024-01-15T00:04:24;3.80;99.90
48686;DHT22;34485;51.536;3.816;2024-01-15T00:06:50;3.80;99.90
48686;DHT22;34485;51.536;3.816;2024-01-15T00:09:15;3.70;99.90
48686;DHT22;34485;51.536;3.816;2024-01-15T00:11:42;3.70;99.90
48686;DHT22;34485;51.536;3.816;2024-01-15T00:14:08;3.60;99.90
48686;DHT22;34485;51.536;3.816;2024-01-15T00:16:34;3.70;99.90
48686;DHT22;34485;51.536;3.816;2024-01-15T00:19:00;3.60;99.90
48686;DHT22;34485;51.536;3.816;2024-01-15T00:21:25;3.60;99.90
48686;DHT22;34485;51.536;3.816;2024-01-15T00:23:52;3.60;99.90
48686;DHT22;34485;51.536;3.816;2024-01-15T00:26:18;3.60;99.90
48686;DHT22;34485;51.536;3.816;2024-01-15T00:28:44;3.50;99.90
48686;DHT22;34485;51.536;3.816;2024-01-15T00:31:09;3.60;99.90
48686;DHT22;34485;51.536;3.816;2024-01-15T00:33:35;3.70;99.90
48686;DHT22;34485;51.536;3.816;2024-01-15T00:36:01;3.60;99.90
48686;DHT22;34485;51.536;3.816;2024-01-15T00:38:26;3.60;99.90
48686;DHT22;34485;51.536;3.816;2024-01-15T00:40:52;3.60;99.90
48686;DHT22;34485;51.536;3.816;2024-01-15T00:43:17;3.60;99.90
48686;DHT22;34485;51.536;3.816;2024-01-15T00:45:44;3.60;99.90
48686;DHT22;34485;51.536;3.816;2024-01-15T00:48:10;3.70;99.90
48686;DHT22;34485;51.536;3.816;2024-01-15T00:50:37;3.70;99.90
48686;DHT22;34485;51.536;3.816;2024-01-15T00:53:03;3.70;99.90
48686;DHT22;34485;51.536;3.816;2024-01-15T00:55:29;3.60;99.90
48686;DHT22;34485;51.536;3.816;2024-01-15T00:57:55;3.60;99.90
48686;DHT22;34485;51.536;3.816;2024-01-15T01:00:21;3.60;99.90
48686;DHT22;34485;51.536;3.816;2024-01-15T01:02:46;3.40;99.90
48686;DHT22;34485;51.536;3.816;2024-01-15T01:05:12;3.40;99.90
48686;DHT22;34485;51.536;3.816;2024-01-15T01:07:38;3.40;99.90
48686;DHT22;34485;51.536;3.816;2024-01-15T01:10:04;3.50;99.90
48686;DHT22;34485;51.536;3.816;2024-01-15T01:12:30;3.60;99.90
48686;DHT22;34485;51.536;3.816;2024-01-15T01:14:56;3.60;99.90
48686;DHT22;34485;51.536;3.816;2024-01-15T01:17:22;3.50;99.90
48686;DHT22;34485;51.536;3.816;2024-01-15T01:19:48;3.50;99.90
48686;DHT22;34485;51.536;3.816;2024-01-15T01:22:14;3.40;99.90
48686;DHT22;34485;51.536;3.816;2024-01-15T01:24:40;3.40;99.90
48686;DHT22;34485;51.536;3.816;2024-01-15T01:27:06;3.30;99.90
48686;DHT22;34485;51.536;3.816;2024-01-15T01:29:31;3.30;99.90
48686;DHT22;34485;51.536;3.816;2024-01-15T01:31:57;3.20;99.90
48686;DHT22;34485;51.536;3.816;2024-01-15T01:34:23;3.20;99.90
48686;DHT22;34485;51.536;3.816;2024-01-15T01:36:48;3.30;99.90
48686;DHT22;34485;51.536;3.816;2024-01-15T01:39:14;3.30;99.90
48686;DHT22;34485;51.536;3.816;2024-01-15T01:41:40;3.40;99.90
48686;DHT22;34485;51.536;3.816;2024-01-15T01:44:06;3.50;99.90
48686;DHT22;34485;51.536;3.816;2024-01-15T01:46:33;3.50;99.90
48686;DHT22;34485;51.536;3.816;2024-01-15T01:49:00;3.70;99.90
48686;DHT22;34485;51.536;3.816;2024-01-15T01:51:31;3.70;99.90
48686;DHT22;34485;51.536;3.816;2024-01-15T01:53:57;3.60;99.90
48686;DHT22;34485;51.536;3.816;2024-01-15T01:56:24;3.70;99.90
48686;DHT22;34485;51.536;3.816;2024-01-15T01:58:50;3.50;99.90
48686;DHT22;34485;51.536;3.816;2024-01-15T02:01:15;3.40;99.90
48686;DHT22;34485;51.536;3.816;2024-01-15T02:03:42;3.30;99.90
48686;DHT22;34485;51.536;3.816;2024-01-15T02:06:08;3.30;99.90
48686;DHT22;34485;51.536;3.816;2024-01-15T02:08:34;3.30;99.90
48686;DHT22;34485;51.536;3.816;2024-01-15T02:11:00;3.30;99.90
48686;DHT22;34485;51.536;3.816;2024-01-15T02:13:26;3.30;99.90
48686;DHT22;34485;51.536;3.816;2024-01-15T02:15:52;3.20;99.90
48686;DHT22;34485;51.536;3.816;2024-01-15T02:18:17;3.30;99.90
48686;DHT22;34485;51.536;3.816;2024-01-15T02:20:43;3.30;99.90
48686;DHT22;34485;51.536;3.816;2024-01-15T02:23:13;3.30;99.90
48686;DHT22;34485;51.536;3.816;2024-01-15T02:25:41;3.30;99.90
48686;DHT22;34485;51.536;3.816;2024-01-15T02:28:09;3.30;99.90
48686;DHT22;34485;51.536;3.816;2024-01-15T02:30:37;3.30;99.90
48686;DHT22;34485;51.536;3.816;2024-01-15T02:33:05;3.30;99.90
48686;DHT22;34485;51.536;3.816;2024-01-15T02:35:30;3.40;99.90
48686;DHT22;34485;51.536;3.816;2024-01-15T02:37:56;3.40;99.90
48686;DHT22;34485;51.536;3.816;2024-01-15T02:40:22;3.50;99.90
48686;DHT22;34485;51.536;3.816;2024-01-15T02:42:47;3.50;99.90
48686;DHT22;34485;51.536;3.816;2024-01-15T02:45:13;3.60;99.90
48686;DHT22;34485;51.536;3.816;2024-01-15T02:47:39;3.60;99.90
48686;DHT22;34485;51.536;3.816;2024-01-15T02:50:05;3.60;99.90
48686;DHT22;34485;51.536;3.816;2024-01-15T02:52:30;3.60;99.90
48686;DHT22;34485;51.536;3.816;2024-01-15T02:54:56;3.60;99.90
48686;DHT22;34485;51.536;3.816;2024-01-15T02:57:22;3.60;99.90
48686;DHT22;34485;51.536;3.816;2024-01-15T02:59:47;3.60;99.90
48686;DHT22;34485;51.536;3.816;2024-01-15T03:02:13;3.60;99.90
48686;DHT22;34485;51.536;3.816;2024-01-15T03:04:43;3.60;99.90
48686;DHT22;34485;51.536;3.816;2024-01-15T03:07:09;3.60;99.90
48686;DHT22;34485;51.536;3.816;2024-01-15T03:09:34;3.60;99.90
48686;DHT22;34485;51.536;3.816;2024-01-15T03:12:00;3.60;99.90
48686;DHT22;34485;51.536;3.816;2024-01-15T03:14:26;3.60;99.90
48686;DHT22;34485;51.536;3.816;2024-01-15T03:16:52;3.70;99.90
48686;DHT22;34485;51.536;3.816;2024-01-15T03:19:18;3.70;99.90
48686;DHT22;34485;51.536;3.816;2024-01-15T03:21:43;3.70;99.90
48686;DHT22;34485;51.536;3.816;2024-01-15T03:24:09;3.80;99.90
48686;DHT22;34485;51.536;3.816;2024-01-15T03:26:35;3.80;99.90
48686;DHT22;34485;51.536;3.816;2024-01-15T03:29:00;3.80;99.90
48686;DHT22;34485;51.536;3.816;2024-01-15T03:31:26;3.80;99.90
48686;DHT22;34485;51.536;3.816;2024-01-15T03:33:52;3.80;99.90
48686;DHT22;34485;51.536;3.816;2024-01-15T03:36:17;3.80;99.90
48686;DHT22;34485;51.536;3.816;2024-01-15T03:38:43;3.80;99.90
48686;DHT22;34485;51.536;3.816;2024-01-15T03:41:09;3.80;99.90
48686;DHT22;34485;51.536;3.816;2024-01-15T03:43:35;3.90;99.90
48686;DHT22;34485;51.536;3.816;2024-01-15T03:46:01;3.90;99.90
48686;DHT22;34485;51.536;3.816;2024-01-15T03:48:27;3.90;99.90
48686;DHT22;34485;51.536;3.816;2024-01-15T03:50:53;3.90;99.90
48686;DHT22;34485;51.536;3.816;2024-01-15T03:53:19;3.90;99.90
48686;DHT22;34485;51.536;3.816;2024-01-15T03:55:45;3.90;99.90
48686;DHT22;34485;51.536;3.816;2024-01-15T03:58:10;3.90;99.90
48686;DHT22;34485;51.536;3.816;2024-01-15T04:00:36;4.00;99.90
48686;DHT22;34485;51.536;3.816;2024-01-15T04:03:02;3.90;99.90
48686;DHT22;34485;51.536;3.816;2024-01-15T04:05:27;3.90;99.90
48686;DHT22;34485;51.536;3.816;2024-01-15T04:07:53;3.90;99.90
48686;DHT22;34485;51.536;3.816;2024-01-15T04:10:19;3.80;99.90
48686;DHT22;34485;51.536;3.816;2024-01-15T04:12:44;3.80;99.90
48686;DHT22;34485;51.536;3.816;2024-01-15T04:15:12;3.80;99.90
48686;DHT22;34485;51.536;3.816;2024-01-15T04:17:38;3.70;99.90
48686;DHT22;34485;51.536;3.816;2024-01-15T04:20:04;3.70;99.90
48686;DHT22;34485;51.536;3.816;2024-01-15T04:22:30;3.70;99.90
48686;DHT22;34485;51.536;3.816;2024-01-15T04:24:55;3.80;99.90
48686;DHT22;34485;51.536;3.816;2024-01-15T04:27:21;3.80;99.90
48686;DHT22;34485;51.536;3.816;2024-01-15T04:29:47;3.90;99.90
48686;DHT22;34485;51.536;3.816;2024-01-15T04:32:13;3.90;99.90
48686;DHT22;34485;51.536;3.816;2024-01-15T04:34:38;3.90;99.90
48686;DHT22;34485;51.536;3.816;2024-01-15T04:37:04;3.90;99.90
48686;DHT22;34485;51.536;3.816;2024-01-15T04:39:30;3.90;99.90
48686;DHT22;34485;51.536;3.816;2024-01-15T04:51:39;3.90;99.90
48686;DHT22;34485;51.536;3.816;2024-01-15T04:54:05;3.80;99.90
48686;DHT22;34485;51.536;3.816;2024-01-15T04:56:30;3.70;99.90
48686;DHT22;34485;51.536;3.816;2024-01-15T04:58:56;3.70;99.90
48686;DHT22;34485;51.536;3.816;2024-01-15T05:01:22;3.60;99.90
48686;DHT22;34485;51.536;3.816;2024-01-15T05:06:15;3.60;99.90
48686;DHT22;34485;51.536;3.816;2024-01-15T05:08:40;3.50;99.90
48686;DHT22;34485;51.536;3.816;2024-01-15T05:11:06;3.60;99.90
48686;DHT22;34485;51.536;3.816;2024-01-15T05:13:32;3.50;99.90
48686;DHT22;34485;51.536;3.816;2024-01-15T05:15:58;3.60;99.90
48686;DHT22;34485;51.536;3.816;2024-01-15T05:18:24;3.60;99.90
48686;DHT22;34485;51.536;3.816;2024-01-15T05:20:49;3.70;99.90
48686;DHT22;34485;51.536;3.816;2024-01-15T05:23:15;3.70;99.90
48686;DHT22;34485;51.536;3.816;2024-01-15T05:25:41;3.60;99.90
48686;DHT22;34485;51.536;3.816;2024-01-15T05:28:07;3.30;99.90
48686;DHT22;34485;51.536;3.816;2024-01-15T05:30:33;3.10;99.90
48686;DHT22;34485;51.536;3.816;2024-01-15T05:32:59;3.00;99.90
48686;DHT22;34485;51.536;3.816;2024-01-15T05:35:25;2.90;99.90
48686;DHT22;34485;51.536;3.816;2024-01-15T05:37:51;2.90;99.90
48686;DHT22;34485;51.536;3.816;2024-01-15T05:40:17;2.90;99.90
48686;DHT22;34485;51.536;3.816;2024-01-15T05:42:42;2.90;99.90
48686;DHT22;34485;51.536;3.816;2024-01-15T05:45:09;2.90;99.90
48686;DHT22;34485;51.536;3.816;2024-01-15T05:47:34;2.90;99.90
48686;DHT22;34485;51.536;3.816;2024-01-15T05:50:01;3.00;99.90
48686;DHT22;34485;51.536;3.816;2024-01-15T05:52:27;3.10;99.90
48686;DHT22;34485;51.536;3.816;2024-01-15T05:54:53;3.20;99.90
48686;DHT22;34485;51.536;3.816;2024-01-15T05:57:19;3.30;99.90
48686;DHT22;34485;51.536;3.816;2024-01-15T05:59:45;3.40;99.90
48686;DHT22;34485;51.536;3.816;2024-01-15T06:02:11;3.40;99.90
48686;DHT22;34485;51.536;3.816;2024-01-15T06:04:37;3.40;99.90
48686;DHT22;34485;51.536;3.816;2024-01-15T06:07:03;3.50;99.90
48686;DHT22;34485;51.536;3.816;2024-01-15T06:09:28;3.40;99.90
48686;DHT22;34485;51.536;3.816;2024-01-15T06:11:55;3.50;99.90
48686;DHT22;34485;51.536;3.816;2024-01-15T06:14:20;3.50;99.90
48686;DHT22;34485;51.536;3.816;2024-01-15T06:16:46;3.50;99.90
48686;DHT22;34485;51.536;3.816;2024-01-15T06:19:12;3.50;99.90
48686;DHT22;34485;51.536;3.816;2024-01-15T06:21:37;3.70;99.90
48686;DHT22;34485;51.536;3.816;2024-01-15T06:24:03;3.70;99.90
48686;DHT22;34485;51.536;3.816;2024-01-15T06:26:29;3.70;99.90
48686;DHT22;34485;51.536;3.816;2024-01-15T06:28:55;3.80;99.90
48686;DHT22;34485;51.536;3.816;2024-01-15T06:31:21;3.70;99.90
48686;DHT22;34485;51.536;3.816;2024-01-15T06:33:46;3.70;99.90
48686;DHT22;34485;51.536;3.816;2024-01-15T06:36:14;3.70;99.90
48686;DHT22;34485;51.536;3.816;2024-01-15T06:38:40;3.70;99.90
48686;DHT22;34485;51.536;3.816;2024-01-15T06:41:05;3.60;99.90
48686;DHT22;34485;51.536;3.816;2024-01-15T06:43:31;3.60;99.90
48686;DHT22;34485;51.536;3.816;2024-01-15T06:45:57;3.50;99.90
48686;DHT22;34485;51.536;3.816;2024-01-15T06:48:23;3.50;99.90
48686;DHT22;34485;51.536;3.816;2024-01-15T06:50:48;3.50;99.90
48686;DHT22;34485;51.536;3.816;2024-01-15T06:53:14;3.40;99.90
48686;DHT22;34485;51.536;3.816;2024-01-15T06:55:40;3.50;99.90
48686;DHT22;34485;51.536;3.816;2024-01-15T06:58:05;3.40;99.90
48686;DHT22;34485;51.536;3.816;2024-01-15T07:00:31;3.50;99.90
48686;DHT22;34485;51.536;3.816;2024-01-15T07:02:57;3.50;99.90
48686;DHT22;34485;51.536;3.816;2024-01-15T07:05:23;3.50;99.90
48686;DHT22;34485;51.536;3.816;2024-01-15T07:07:49;3.50;99.90
48686;DHT22;34485;51.536;3.816;2024-01-15T07:10:15;3.50;99.90
48686;DHT22;34485;51.536;3.816;2024-01-15T07:12:44;3.50;99.90
48686;DHT22;34485;51.536;3.816;2024-01-15T07:15:10;3.50;99.90
48686;DHT22;34485;51.536;3.816;2024-01-15T07:17:37;3.50;99.90
48686;DHT22;34485;51.536;3.816;2024-01-15T07:20:09;3.50;99.90
48686;DHT22;34485;51.536;3.816;2024-01-15T07:22:38;3.50;99.90
48686;DHT22;34485;51.536;3.816;2024-01-15T07:25:04;3.40;99.90
48686;DHT22;34485;51.536;3.816;2024-01-15T07:27:31;3.30;99.90
48686;DHT22;34485;51.536;3.816;2024-01-15T07:29:57;3.30;99.90
48686;DHT22;34485;51.536;3.816;2024-01-15T07:32:23;3.30;99.90
48686;DHT22;34485;51.536;3.816;2024-01-15T07:34:49;3.30;99.90
48686;DHT22;34485;51.536;3.816;2024-01-15T08:33:28;3.50;99.90
48686;DHT22;34485;51.536;3.816;2024-01-15T08:35:54;3.50;99.90
48686;DHT22;34485;51.536;3.816;2024-01-15T08:38:20;3.50;99.90
48686;DHT22;34485;51.536;3.816;2024-01-15T08:40:46;3.50;99.90
48686;DHT22;34485;51.536;3.816;2024-01-15T08:43:11;3.60;99.90
48686;DHT22;34485;51.536;3.816;2024-01-15T09:22:13;4.50;99.90
48686;DHT22;34485;51.536;3.816;2024-01-15T09:24:43;4.40;99.90
48686;DHT22;34485;51.536;3.816;2024-01-15T09:27:08;4.60;99.90
48686;DHT22;34485;51.536;3.816;2024-01-15T09:29:34;4.60;99.90
48686;DHT22;34485;51.536;3.816;2024-01-15T09:32:03;4.40;99.90
48686;DHT22;34485;51.536;3.816;2024-01-15T09:34:29;4.40;99.90
48686;DHT22;34485;51.536;3.816;2024-01-15T09:36:55;4.40;99.90
48686;DHT22;34485;51.536;3.816;2024-01-15T09:39:21;4.30;99.90
48686;DHT22;34485;51.536;3.816;2024-01-15T09:41:49;4.30;99.90
48686;DHT22;34485;51.536;3.816;2024-01-15T09:44:16;4.30;99.90
48686;DHT22;34485;51.536;3.816;2024-01-15T09:46:42;4.30;99.90
48686;DHT22;34485;51.536;3.816;2024-01-15T09:49:10;4.30;99.90
48686;DHT22;34485;51.536;3.816;2024-01-15T09:51:36;4.40;99.90
48686;DHT22;34485;51.536;3.816;2024-01-15T09:54:02;4.40;99.90
48686;DHT22;34485;51.536;3.816;2024-01-15T09:56:30;4.40;99.90
48686;DHT22;34485;51.536;3.816;2024-01-15T09:58:57;4.50;99.90
48686;DHT22;34485;51.536;3.816;2024-01-15T10:01:23;4.40;99.90
48686;DHT22;34485;51.536;3.816;2024-01-15T10:03:50;4.40;99.90
48686;DHT22;34485;51.536;3.816;2024-01-15T10:06:17;4.50;99.90
48686;DHT22;34485;51.536;3.816;2024-01-15T10:08:47;4.40;99.90
48686;DHT22;34485;51.536;3.816;2024-01-15T10:11:13;4.50;99.90
48686;DHT22;34485;51.536;3.816;2024-01-15T10:13:39;4.50;99.90
48686;DHT22;34485;51.536;3.816;2024-01-15T10:16:06;4.50;99.90
48686;DHT22;34485;51.536;3.816;2024-01-15T10:18:32;4.50;99.90
48686;DHT22;34485;51.536;3.816;2024-01-15T10:20:58;4.40;99.90
48686;DHT22;34485;51.536;3.816;2024-01-15T10:23:26;4.50;99.90
48686;DHT22;34485;51.536;3.816;2024-01-15T10:25:52;4.50;99.90
48686;DHT22;34485;51.536;3.816;2024-01-15T10:28:19;4.50;99.90
48686;DHT22;34485;51.536;3.816;2024-01-15T10:30:45;4.30;99.90
48686;DHT22;34485;51.536;3.816;2024-01-15T10:33:11;4.00;99.90
48686;DHT22;34485;51.536;3.816;2024-01-15T10:35:38;3.90;99.90
48686;DHT22;34485;51.536;3.816;2024-01-15T10:38:05;3.80;99.90
48686;DHT22;34485;51.536;3.816;2024-01-15T10:40:31;3.80;99.90
48686;DHT22;34485;51.536;3.816;2024-01-15T10:42:57;3.80;99.90
48686;DHT22;34485;51.536;3.816;2024-01-15T10:45:23;3.80;99.90
48686;DHT22;34485;51.536;3.816;2024-01-15T10:47:49;3.50;99.90
48686;DHT22;34485;51.536;3.816;2024-01-15T10:50:15;3.00;99.90
48686;DHT22;34485;51.536;3.816;2024-01-15T10:52:42;2.80;99.90
48686;DHT22;34485;51.536;3.816;2024-01-15T10:55:11;2.70;99.90
48686;DHT22;34485;51.536;3.816;2024-01-15T10:57:37;2.70;99.90
48686;DHT22;34485;51.536;3.816;2024-01-15T11:00:04;2.90;99.90
48686;DHT22;34485;51.536;3.816;2024-01-15T11:02:36;3.00;99.90
48686;DHT22;34485;51.536;3.816;2024-01-15T11:05:02;3.00;99.90
48686;DHT22;34485;51.536;3.816;2024-01-15T11:07:30;3.00;99.90
48686;DHT22;34485;51.536;3.816;2024-01-15T11:09:56;3.10;99.90
48686;DHT22;34485;51.536;3.816;2024-01-15T11:14:50;4.00;99.90
48686;DHT22;34485;51.536;3.816;2024-01-15T11:17:17;4.50;99.90
48686;DHT22;34485;51.536;3.816;2024-01-15T11:19:43;4.50;99.90
48686;DHT22;34485;51.536;3.816;2024-01-15T11:22:47;4.30;99.90
48686;DHT22;34485;51.536;3.816;2024-01-15T11:25:12;3.90;99.90
48686;DHT22;34485;51.536;3.816;2024-01-15T11:27:42;3.50;99.90
48686;DHT22;34485;51.536;3.816;2024-01-15T11:30:09;3.40;99.90
48686;DHT22;34485;51.536;3.816;2024-01-15T11:35:02;3.30;99.90
48686;DHT22;34485;51.536;3.816;2024-01-15T12:00:03;2.00;99.90
48686;DHT22;34485;51.536;3.816;2024-01-15T12:24:31;2.00;99.90
48686;DHT22;34485;51.536;3.816;2024-01-15T12:26:57;2.10;99.90
48686;DHT22;34485;51.536;3.816;2024-01-15T12:29:23;2.10;99.90
48686;DHT22;34485;51.536;3.816;2024-01-15T12:31:48;2.10;99.90
48686;DHT22;34485;51.536;3.816;2024-01-15T12:34:14;2.00;99.90
48686;DHT22;34485;51.536;3.816;2024-01-15T12:36:40;2.00;99.90
48686;DHT22;34485;51.536;3.816;2024-01-15T12:39:11;2.10;99.90
48686;DHT22;34485;51.536;3.816;2024-01-15T13:18:15;3.50;99.90
48686;DHT22;34485;51.536;3.816;2024-01-15T13:20:41;3.60;99.90
48686;DHT22;34485;51.536;3.816;2024-01-15T13:23:07;3.60;99.90
48686;DHT22;34485;51.536;3.816;2024-01-15T13:30:30;4.10;99.90
48686;DHT22;34485;51.536;3.816;2024-01-15T13:32:57;4.10;99.90
48686;DHT22;34485;51.536;3.816;2024-01-15T13:35:23;4.40;99.90
48686;DHT22;34485;51.536;3.816;2024-01-15T13:37:49;4.50;99.90
48686;DHT22;34485;51.536;3.816;2024-01-15T13:40:15;4.50;99.90
48686;DHT22;34485;51.536;3.816;2024-01-15T13:42:46;4.30;99.90
48686;DHT22;34485;51.536;3.816;2024-01-15T13:45:12;4.30;99.90
48686;DHT22;34485;51.536;3.816;2024-01-15T13:47:40;4.20;99.90
48686;DHT22;34485;51.536;3.816;2024-01-15T13:50:07;4.20;99.90
48686;DHT22;34485;51.536;3.816;2024-01-15T13:52:32;4.20;99.90
48686;DHT22;34485;51.536;3.816;2024-01-15T13:54:58;4.20;99.90
48686;DHT22;34485;51.536;3.816;2024-01-15T13:57:24;4.20;99.90
48686;DHT22;34485;51.536;3.816;2024-01-15T13:59:50;4.30;99.90
48686;DHT22;34485;51.536;3.816;2024-01-15T14:02:16;4.50;99.90
48686;DHT22;34485;51.536;3.816;2024-01-15T14:04:41;4.60;99.90
48686;DHT22;34485;51.536;3.816;2024-01-15T14:07:07;4.50;99.90
48686;DHT22;34485;51.536;3.816;2024-01-15T14:09:33;4.40;99.90
48686;DHT22;34485;51.536;3.816;2024-01-15T14:11:59;4.30;99.90
48686;DHT22;34485;51.536;3.816;2024-01-15T14:14:25;4.20;99.90
48686;DHT22;34485;51.536;3.816;2024-01-15T14:16:50;4.20;99.90
48686;DHT22;34485;51.536;3.816;2024-01-15T14:19:16;4.20;99.90
48686;DHT22;34485;51.536;3.816;2024-01-15T14:24:08;4.70;99.90
48686;DHT22;34485;51.536;3.816;2024-01-15T14:26:34;4.70;99.90
48686;DHT22;34485;51.536;3.816;2024-01-15T14:29:00;4.80;99.90
48686;DHT22;34485;51.536;3.816;2024-01-15T14:31:25;4.70;99.90
48686;DHT22;34485;51.536;3.816;2024-01-15T14:33:52;4.60;99.90
48686;DHT22;34485;51.536;3.816;2024-01-15T14:36:18;4.60;99.90
48686;DHT22;34485;51.536;3.816;2024-01-15T14:46:02;4.50;99.90
48686;DHT22;34485;51.536;3.816;2024-01-15T14:48:27;4.50;99.90
48686;DHT22;34485;51.536;3.816;2024-01-15T14:50:53;4.60;99.90
48686;DHT22;34485;51.536;3.816;2024-01-15T15:12:47;3.30;99.90
48686;DHT22;34485;51.536;3.816;2024-01-15T15:15:13;3.30;99.90
48686;DHT22;34485;51.536;3.816;2024-01-15T15:17:39;3.40;99.90
48686;DHT22;34485;51.536;3.816;2024-01-15T15:20:06;3.60;99.90
48686;DHT22;34485;51.536;3.816;2024-01-15T15:22:32;3.70;99.90
48686;DHT22;34485;51.536;3.816;2024-01-15T15:24:58;3.80;99.90
48686;DHT22;34485;51.536;3.816;2024-01-15T15:27:23;3.80;99.90
48686;DHT22;34485;51.536;3.816;2024-01-15T15:29:49;3.70;99.90
48686;DHT22;34485;51.536;3.816;2024-01-15T15:32:16;3.70;99.90
48686;DHT22;34485;51.536;3.816;2024-01-15T15:34:41;3.70;99.90
48686;DHT22;34485;51.536;3.816;2024-01-15T15:44:25;4.10;99.90
48686;DHT22;34485;51.536;3.816;2024-01-15T16:16:11;2.70;99.90
48686;DHT22;34485;51.536;3.816;2024-01-15T16:18:36;2.30;99.90
48686;DHT22;34485;51.536;3.816;2024-01-15T16:21:02;2.30;99.90
48686;DHT22;34485;51.536;3.816;2024-01-15T16:23:28;2.20;99.90
48686;DHT22;34485;51.536;3.816;2024-01-15T16:25:54;2.10;99.90
48686;DHT22;34485;51.536;3.816;2024-01-15T16:28:19;2.10;99.90
48686;DHT22;34485;51.536;3.816;2024-01-15T16:30:45;2.00;99.90
48686;DHT22;34485;51.536;3.816;2024-01-15T17:53:34;2.80;99.90
48686;DHT22;34485;51.536;3.816;2024-01-15T17:56:00;2.70;99.90
48686;DHT22;34485;51.536;3.816;2024-01-15T17:58:26;2.80;99.90
48686;DHT22;34485;51.536;3.816;2024-01-15T18:00:52;2.90;99.90
48686;DHT22;34485;51.536;3.816;2024-01-15T18:03:18;3.00;99.90
48686;DHT22;34485;51.536;3.816;2024-01-15T18:05:43;3.10;99.90
48686;DHT22;34485;51.536;3.816;2024-01-15T18:08:09;3.20;99.90
48686;DHT22;34485;51.536;3.816;2024-01-15T18:10:35;3.30;99.90
48686;DHT22;34485;51.536;3.816;2024-01-15T18:13:01;3.30;99.90
48686;DHT22;34485;51.536;3.816;2024-01-15T18:15:26;3.30;99.90
48686;DHT22;34485;51.536;3.816;2024-01-15T18:17:52;3.30;99.90
48686;DHT22;34485;51.536;3.816;2024-01-15T18:20:18;3.30;99.90
48686;DHT22;34485;51.536;3.816;2024-01-15T18:22:44;3.40;99.90
48686;DHT22;34485;51.536;3.816;2024-01-15T18:25:09;3.40;99.90
48686;DHT22;34485;51.536;3.816;2024-01-15T18:27:35;3.40;99.90
48686;DHT22;34485;51.536;3.816;2024-01-15T18:30:01;3.50;99.90
48686;DHT22;34485;51.536;3.816;2024-01-15T18:32:26;3.40;99.90
48686;DHT22;34485;51.536;3.816;2024-01-15T18:34:52;3.40;99.90
48686;DHT22;34485;51.536;3.816;2024-01-15T18:37:18;3.30;99.90
48686;DHT22;34485;51.536;3.816;2024-01-15T18:39:44;3.40;99.90
48686;DHT22;34485;51.536;3.816;2024-01-15T19:45:48;3.60;99.90
48686;DHT22;34485;51.536;3.816;2024-01-15T19:48:14;3.50;99.90
48686;DHT22;34485;51.536;3.816;2024-01-15T19:50:43;3.50;99.90
48686;DHT22;34485;51.536;3.816;2024-01-15T19:53:08;3.50;99.90
48686;DHT22;34485;51.536;3.816;2024-01-15T19:55:34;3.50;99.90
48686;DHT22;34485;51.536;3.816;2024-01-15T19:58:01;3.50;99.90
48686;DHT22;34485;51.536;3.816;2024-01-15T20:00:27;3.60;99.90
48686;DHT22;34485;51.536;3.816;2024-01-15T20:02:53;3.60;99.90
48686;DHT22;34485;51.536;3.816;2024-01-15T20:05:19;3.60;99.90
48686;DHT22;34485;51.536;3.816;2024-01-15T20:07:44;3.60;99.90
